createdAt,value
2024-02-22T00:01:28.623Z,34.49
2024-02-22T00:03:55.766Z,34.36
2024-02-22T00:06:23.131Z,34.36
2024-02-22T00:08:50.209Z,34.85
2024-02-22T00:11:17.712Z,34.56
2024-02-22T00:13:46.902Z,34.54
2024-02-22T00:16:18.008Z,34.97
2024-02-22T00:18:46.502Z,35.18
2024-02-22T00:21:15.229Z,34.99
2024-02-22T00:23:43.035Z,35.18
2024-02-22T00:26:10.501Z,35.27
2024-02-22T00:28:38.012Z,35.33
2024-02-22T00:31:05.212Z,35.45
2024-02-22T00:33:33.808Z,35.56
2024-02-22T00:36:01.349Z,35.85
2024-02-22T00:38:28.448Z,35.85
2024-02-22T00:40:55.564Z,36.23
2024-02-22T00:43:22.696Z,36.10
2024-02-22T00:45:49.753Z,36.24
2024-02-22T00:48:17.028Z,36.49
2024-02-22T00:50:44.361Z,36.57
2024-02-22T00:53:12.100Z,36.44
2024-02-22T00:55:40.488Z,36.54
2024-02-22T00:58:11.341Z,36.47
2024-02-22T01:00:38.547Z,36.88
2024-02-22T01:03:06.311Z,36.66
2024-02-22T01:05:33.656Z,36.83
2024-02-22T01:08:01.391Z,37.00
2024-02-22T01:10:28.639Z,36.71
2024-02-22T01:12:55.846Z,36.66
2024-02-22T01:15:23.048Z,36.88
2024-02-22T01:17:50.194Z,36.86
2024-02-22T01:20:17.599Z,36.19
2024-02-22T01:22:44.762Z,36.41
2024-02-22T01:25:12.835Z,35.68
2024-02-22T01:27:40.267Z,35.78
2024-02-22T01:30:08.256Z,35.62
2024-02-22T01:32:36.227Z,35.25
2024-02-22T01:35:05.425Z,35.38
2024-02-22T01:37:32.717Z,35.07
2024-02-22T01:39:59.878Z,35.27
2024-02-22T01:42:27.746Z,35.63
2024-02-22T01:44:54.810Z,35.70
2024-02-22T01:47:21.898Z,36.11
2024-02-22T01:49:49.674Z,36.21
2024-02-22T01:52:16.956Z,35.81
2024-02-22T01:54:44.161Z,35.88
2024-02-22T01:57:11.302Z,35.82
2024-02-22T01:59:38.468Z,36.05
2024-02-22T02:02:06.722Z,36.22
2024-02-22T02:04:34.129Z,36.58
2024-02-22T02:07:01.318Z,37.17
2024-02-22T02:09:28.759Z,37.64
2024-02-22T02:11:58.244Z,37.75
2024-02-22T02:14:25.341Z,38.29
2024-02-22T02:16:52.499Z,38.11
2024-02-22T02:19:29.110Z,38.91
2024-02-22T02:22:23.344Z,39.13
2024-02-22T02:25:02.839Z,39.66
2024-02-22T02:27:31.498Z,40.07
2024-02-22T02:29:58.685Z,40.53
2024-02-22T02:32:25.845Z,40.88
2024-02-22T02:34:53.096Z,41.32
2024-02-22T02:37:20.284Z,41.53
2024-02-22T02:39:47.386Z,41.78
2024-02-22T02:42:16.077Z,42.54
2024-02-22T02:44:45.102Z,42.71
2024-02-22T02:47:14.135Z,42.72
2024-02-22T02:49:41.582Z,43.15
2024-02-22T02:52:08.727Z,43.38
2024-02-22T02:54:35.951Z,43.52
2024-02-22T02:57:03.415Z,43.70
2024-02-22T02:59:30.520Z,43.81
2024-02-22T03:01:58.125Z,44.42
2024-02-22T03:04:25.364Z,44.75
2024-02-22T03:06:52.850Z,45.64
2024-02-22T03:09:19.921Z,45.48
2024-02-22T03:11:47.094Z,45.94
2024-02-22T03:14:15.755Z,45.78
2024-02-22T03:16:42.881Z,46.20
2024-02-22T03:19:10.581Z,47.16
2024-02-22T03:21:38.812Z,46.79
2024-02-22T03:24:06.211Z,46.72
2024-02-22T03:26:33.306Z,47.01
2024-02-22T03:29:00.415Z,46.91
2024-02-22T03:31:29.657Z,46.64
2024-02-22T03:33:57.039Z,46.57
2024-02-22T03:36:24.164Z,47.07
2024-02-22T03:38:54.495Z,47.05
2024-02-22T03:41:25.577Z,47.15
2024-02-22T03:43:53.344Z,47.06
2024-02-22T03:46:21.199Z,47.51
2024-02-22T03:48:48.419Z,47.27
2024-02-22T03:51:15.500Z,47.42
2024-02-22T03:53:42.568Z,47.62
2024-02-22T03:56:09.681Z,47.56
2024-02-22T03:58:39.222Z,47.50
2024-02-22T04:01:06.860Z,47.61
2024-02-22T04:03:35.366Z,47.60
2024-02-22T04:06:03.729Z,47.86
2024-02-22T04:08:31.242Z,47.69
2024-02-22T04:10:58.514Z,47.93
2024-02-22T04:13:25.662Z,48.33
2024-02-22T04:15:52.786Z,48.27
2024-02-22T04:18:20.102Z,48.17
2024-02-22T04:20:47.310Z,47.79
2024-02-22T04:23:14.499Z,48.01
2024-02-22T04:25:42.385Z,48.22
2024-02-22T04:28:12.142Z,48.10
2024-02-22T04:30:39.526Z,48.17
2024-02-22T04:33:06.787Z,48.51
2024-02-22T04:35:34.026Z,48.44
2024-02-22T04:38:01.286Z,48.55
2024-02-22T04:40:28.406Z,48.28
2024-02-22T04:42:55.598Z,48.13
2024-02-22T04:45:23.284Z,47.92
2024-02-22T04:47:51.645Z,48.15
2024-02-22T04:50:18.919Z,48.01
2024-02-22T04:52:46.096Z,48.24
2024-02-22T04:55:13.265Z,48.31
2024-02-22T04:57:40.378Z,48.54
2024-02-22T05:00:09.787Z,48.29
2024-02-22T05:02:37.030Z,48.52
2024-02-22T05:05:05.058Z,49.18
2024-02-22T05:07:32.355Z,49.26
2024-02-22T05:09:59.906Z,49.27
2024-02-22T05:12:27.329Z,49.10
2024-02-22T05:14:54.388Z,49.43
2024-02-22T05:17:22.526Z,49.48
2024-02-22T05:19:50.238Z,49.88
2024-02-22T05:22:17.372Z,49.58
2024-02-22T05:24:44.535Z,49.86
2024-02-22T05:27:11.996Z,50.10
2024-02-22T05:29:39.204Z,49.77
2024-02-22T05:32:07.080Z,50.05
2024-02-22T05:34:34.273Z,50.62
2024-02-22T05:37:01.457Z,50.55
2024-02-22T05:39:28.505Z,50.73
2024-02-22T05:41:55.608Z,50.59
2024-02-22T05:44:22.784Z,50.68
2024-02-22T05:46:50.053Z,50.61
2024-02-22T05:49:17.449Z,50.59
2024-02-22T05:51:44.583Z,50.38
2024-02-22T05:54:11.665Z,50.45
2024-02-22T05:56:38.723Z,50.47
2024-02-22T05:59:05.782Z,50.59
2024-02-22T06:01:34.577Z,50.33
2024-02-22T06:04:02.786Z,50.69
2024-02-22T06:06:30.368Z,50.77
2024-02-22T06:08:57.759Z,50.77
2024-02-22T06:11:25.500Z,51.10
2024-02-22T06:13:52.807Z,50.66
2024-02-22T06:16:19.896Z,51.12
2024-02-22T06:18:47.094Z,50.88
2024-02-22T06:21:14.252Z,51.41
2024-02-22T06:23:41.288Z,51.44
2024-02-22T06:26:08.453Z,51.53
2024-02-22T06:28:35.979Z,51.43
2024-02-22T06:31:03.671Z,51.19
2024-02-22T06:33:34.907Z,51.02
2024-02-22T06:36:02.360Z,51.27
2024-02-22T06:38:29.665Z,50.76
2024-02-22T06:40:56.709Z,50.83
2024-02-22T06:43:23.877Z,51.02
2024-02-22T06:45:51.156Z,51.19
2024-02-22T06:48:18.359Z,50.75
2024-02-22T06:50:45.645Z,51.21
2024-02-22T06:53:12.898Z,50.86
2024-02-22T06:55:42.564Z,50.94
2024-02-22T06:58:11.935Z,50.40
2024-02-22T07:00:39.304Z,50.59
2024-02-22T07:03:06.853Z,50.74
2024-02-22T07:05:34.425Z,50.65
2024-02-22T07:08:01.917Z,50.33
2024-02-22T07:10:29.327Z,50.81
2024-02-22T07:12:57.167Z,50.66
2024-02-22T07:15:24.865Z,50.88
2024-02-22T07:17:52.108Z,50.63
2024-02-22T07:20:19.392Z,50.29
2024-02-22T07:22:48.504Z,50.42
2024-02-22T07:25:17.701Z,50.06
2024-02-22T07:27:45.173Z,50.39
2024-02-22T07:30:15.126Z,50.44
2024-02-22T07:32:42.540Z,50.28
2024-02-22T07:35:10.511Z,50.25
2024-02-22T07:37:37.829Z,49.91
2024-02-22T07:40:05.879Z,50.01
2024-02-22T07:42:34.515Z,50.25
2024-02-22T07:45:03.051Z,50.32
2024-02-22T07:47:30.284Z,50.31
2024-02-22T07:49:57.549Z,50.36
2024-02-22T07:52:24.767Z,50.43
2024-02-22T07:54:51.866Z,50.61
2024-02-22T07:57:19.017Z,50.84
2024-02-22T07:59:46.421Z,51.19
2024-02-22T08:02:13.603Z,51.26
2024-02-22T08:04:40.954Z,50.84
2024-02-22T08:07:08.396Z,50.57
2024-02-22T08:09:35.569Z,50.61
2024-02-22T08:12:02.783Z,50.23
2024-02-22T08:14:29.960Z,49.89
2024-02-22T08:16:57.077Z,49.88
2024-02-22T08:19:24.175Z,49.58
2024-02-22T08:21:52.965Z,49.25
2024-02-22T08:24:22.278Z,48.76
2024-02-22T08:26:49.613Z,48.63
2024-02-22T08:29:16.889Z,48.76
2024-02-22T08:31:44.142Z,48.08
2024-02-22T08:34:11.440Z,47.77
2024-02-22T08:36:38.590Z,48.02
2024-02-22T08:39:06.036Z,47.76
2024-02-22T08:41:33.117Z,47.97
2024-02-22T08:44:00.336Z,47.60
2024-02-22T08:46:30.321Z,48.04
2024-02-22T08:48:58.012Z,47.67
2024-02-22T08:51:25.258Z,47.91
2024-02-22T08:53:52.360Z,47.37
2024-02-22T08:56:19.544Z,47.68
2024-02-22T08:58:46.640Z,47.63
2024-02-22T09:01:13.729Z,47.58
2024-02-22T09:03:40.868Z,47.69
2024-02-22T09:06:08.241Z,47.72
2024-02-22T09:08:36.523Z,47.50
2024-02-22T09:11:04.071Z,47.48
2024-02-22T09:13:31.290Z,47.79
2024-02-22T09:15:58.541Z,47.76
2024-02-22T09:18:25.671Z,47.56
2024-02-22T09:20:53.548Z,47.75
2024-02-22T09:23:23.458Z,48.51
2024-02-22T09:25:50.681Z,48.38
2024-02-22T09:28:17.823Z,48.35
2024-02-22T09:30:44.951Z,48.14
2024-02-22T09:33:14.579Z,47.94
2024-02-22T09:35:43.157Z,48.37
2024-02-22T09:38:10.375Z,48.24
2024-02-22T09:40:38.802Z,48.11
2024-02-22T09:43:06.657Z,48.61
2024-02-22T09:45:34.466Z,48.13
2024-02-22T09:48:03.148Z,48.09
2024-02-22T09:50:30.638Z,48.15
2024-02-22T09:52:58.601Z,48.51
2024-02-22T09:55:26.220Z,48.32
2024-02-22T09:57:53.438Z,48.15
2024-02-22T10:00:20.971Z,48.15
2024-02-22T10:02:49.024Z,47.67
2024-02-22T10:05:17.727Z,47.92
2024-02-22T10:07:45.131Z,46.95
2024-02-22T10:10:13.052Z,46.35
2024-02-22T10:12:46.022Z,45.56
2024-02-22T10:15:28.446Z,45.76
2024-02-22T10:17:55.974Z,45.30
2024-02-22T10:20:34.280Z,45.19
2024-02-22T10:23:09.917Z,45.31
2024-02-22T10:25:38.037Z,45.65
2024-02-22T10:28:14.954Z,45.27
2024-02-22T10:30:42.169Z,45.03
2024-02-22T10:33:11.992Z,44.16
2024-02-22T10:35:41.735Z,44.52
2024-02-22T10:38:12.909Z,44.87
2024-02-22T10:40:42.182Z,43.91
2024-02-22T10:43:10.815Z,44.17
2024-02-22T10:45:39.233Z,44.67
2024-02-22T10:48:07.929Z,44.62
2024-02-22T10:50:35.971Z,44.46
2024-02-22T10:53:07.724Z,44.46
2024-02-22T10:55:38.520Z,44.23
2024-02-22T10:58:06.730Z,44.31
2024-02-22T11:00:36.128Z,44.44
2024-02-22T11:03:04.496Z,44.27
2024-02-22T11:05:39.731Z,45.25
2024-02-22T11:08:07.498Z,45.45
2024-02-22T11:10:35.089Z,45.51
2024-02-22T11:13:05.671Z,45.28
2024-02-22T11:15:37.285Z,45.16
2024-02-22T11:18:04.976Z,44.74
2024-02-22T11:20:35.513Z,44.83
2024-02-22T11:23:17.229Z,45.29
2024-02-22T11:25:44.828Z,45.00
2024-02-22T11:28:13.261Z,45.00
2024-02-22T11:30:46.581Z,45.09
2024-02-22T11:33:17.127Z,44.60
2024-02-22T11:35:46.389Z,44.69
2024-02-22T11:38:13.663Z,45.04
2024-02-22T11:40:40.883Z,44.75
2024-02-22T11:43:11.113Z,45.17
2024-02-22T11:45:39.898Z,44.52
2024-02-22T11:48:10.196Z,44.53
2024-02-22T11:50:37.559Z,44.24
2024-02-22T11:53:05.096Z,44.32
2024-02-22T11:55:35.527Z,44.55
2024-02-22T11:58:05.067Z,43.97
2024-02-22T12:00:32.457Z,43.66
2024-02-22T12:03:00.768Z,42.83
2024-02-22T12:05:31.604Z,43.43
2024-02-22T12:07:59.201Z,43.21
2024-02-22T12:10:26.656Z,44.15
2024-02-22T12:12:54.264Z,43.73
2024-02-22T12:15:24.250Z,43.62
2024-02-22T12:17:54.230Z,42.68
2024-02-22T12:20:27.299Z,42.40
2024-02-22T12:22:56.125Z,41.12
2024-02-22T12:25:23.524Z,40.85
2024-02-22T12:27:54.654Z,42.38
2024-02-22T12:30:24.374Z,42.52
2024-02-22T12:32:52.219Z,43.11
2024-02-22T12:35:20.324Z,42.65
2024-02-22T12:37:49.996Z,42.49
2024-02-22T12:40:17.448Z,41.53
2024-02-22T12:42:57.245Z,41.29
2024-02-22T12:45:24.519Z,40.32
2024-02-22T12:47:51.837Z,42.16
2024-02-22T12:50:19.036Z,42.31
2024-02-22T12:52:46.116Z,41.89
2024-02-22T12:55:13.276Z,41.42
2024-02-22T12:57:40.388Z,41.23
2024-02-22T13:00:10.341Z,40.37
2024-02-22T13:02:38.333Z,40.41
2024-02-22T13:05:07.046Z,40.64
2024-02-22T13:07:35.076Z,40.58
2024-02-22T13:10:02.249Z,41.78
2024-02-22T13:12:29.453Z,42.91
2024-02-22T13:14:56.463Z,43.98
2024-02-22T13:17:23.620Z,44.38
2024-02-22T13:19:50.861Z,44.05
2024-02-22T13:22:18.153Z,44.06
2024-02-22T13:24:45.273Z,44.74
2024-02-22T13:27:16.267Z,44.91
2024-02-22T13:29:46.784Z,44.11
2024-02-22T13:32:13.896Z,43.76
2024-02-22T13:34:41.130Z,43.23
2024-02-22T13:37:08.411Z,40.15
2024-02-22T13:39:35.532Z,38.74
2024-02-22T13:42:02.720Z,39.16
2024-02-22T13:44:31.298Z,41.00
2024-02-22T13:46:59.259Z,40.88
2024-02-22T13:49:26.640Z,41.62
2024-02-22T13:51:57.905Z,41.40
2024-02-22T13:54:29.026Z,42.85
2024-02-22T13:56:57.806Z,43.21
2024-02-22T13:59:25.241Z,42.31
2024-02-22T14:01:52.463Z,40.30
2024-02-22T14:04:19.798Z,36.87
2024-02-22T14:06:47.285Z,36.25
2024-02-22T14:09:17.062Z,37.60
2024-02-22T14:11:44.577Z,38.48
2024-02-22T14:14:11.810Z,39.99
2024-02-22T14:16:39.340Z,40.46
2024-02-22T14:19:06.635Z,41.04
2024-02-22T14:21:33.642Z,41.30
2024-02-22T14:24:01.164Z,41.84
2024-02-22T14:26:29.100Z,42.44
2024-02-22T14:28:56.431Z,42.77
2024-02-22T14:31:23.630Z,43.16
2024-02-22T14:33:50.804Z,43.03
2024-02-22T14:36:19.400Z,43.32
2024-02-22T14:38:48.212Z,43.37
2024-02-22T14:41:15.399Z,43.59
2024-02-22T14:43:42.434Z,43.53
2024-02-22T14:46:09.590Z,43.15
2024-02-22T14:48:38.493Z,42.97
2024-02-22T14:51:08.131Z,42.68
2024-02-22T14:53:36.962Z,42.83
2024-02-22T14:56:04.893Z,42.74
2024-02-22T14:58:32.433Z,43.12
2024-02-22T15:00:59.535Z,44.01
2024-02-22T15:03:28.755Z,44.20
2024-02-22T15:05:56.038Z,44.18
2024-02-22T15:08:23.310Z,44.58
2024-02-22T15:10:50.592Z,44.54
2024-02-22T15:13:17.691Z,44.67
2024-02-22T15:15:44.723Z,44.85
2024-02-22T15:18:11.802Z,45.08
2024-02-22T15:20:38.834Z,45.33
2024-02-22T15:23:06.054Z,45.49
2024-02-22T15:25:33.053Z,45.39
2024-02-22T15:28:00.109Z,45.56
2024-02-22T15:30:27.162Z,45.56
2024-02-22T15:32:57.488Z,45.09
2024-02-22T15:35:25.907Z,45.12
2024-02-22T15:37:53.130Z,44.93
2024-02-22T15:40:20.171Z,44.92
2024-02-22T15:42:49.814Z,44.82
2024-02-22T15:45:17.469Z,45.03
2024-02-22T15:47:44.861Z,45.06
2024-02-22T15:50:12.075Z,45.25
2024-02-22T15:52:39.243Z,45.83
2024-02-22T15:55:06.970Z,45.78
2024-02-22T15:57:33.993Z,45.83
2024-02-22T16:00:01.173Z,45.63
2024-02-22T16:02:28.187Z,45.39
2024-02-22T16:04:55.362Z,45.81
2024-02-22T16:07:22.501Z,46.89
2024-02-22T16:09:49.570Z,48.66
2024-02-22T16:12:16.573Z,49.32
2024-02-22T16:14:43.652Z,48.97
2024-02-22T16:17:10.875Z,48.98
2024-02-22T16:19:37.998Z,49.15
2024-02-22T16:22:11.631Z,49.65
2024-02-22T16:24:39.184Z,50.16
2024-02-22T16:27:08.587Z,50.27
2024-02-22T16:29:37.414Z,50.10
2024-02-22T16:32:05.320Z,50.32
2024-02-22T16:34:33.034Z,50.30
2024-02-22T16:37:00.176Z,50.43
2024-02-22T16:39:34.554Z,50.46
2024-02-22T16:42:05.066Z,50.61
2024-02-22T16:44:32.289Z,50.32
2024-02-22T16:46:59.513Z,50.30
2024-02-22T16:49:26.647Z,50.25
2024-02-22T16:51:53.677Z,50.42
2024-02-22T16:54:20.673Z,50.25
2024-02-22T16:56:47.725Z,50.44
2024-02-22T16:59:14.861Z,50.18
2024-02-22T17:01:42.110Z,50.30
2024-02-22T17:04:10.034Z,50.46
2024-02-22T17:06:37.151Z,50.41
2024-02-22T17:09:05.628Z,50.35
2024-02-22T17:11:32.862Z,50.39
2024-02-22T17:14:01.763Z,50.23
2024-02-22T17:16:28.871Z,50.54
2024-02-22T17:18:56.267Z,50.39
2024-02-22T17:21:26.178Z,50.08
2024-02-22T17:23:53.293Z,49.98
2024-02-22T17:26:20.814Z,49.76
2024-02-22T17:28:47.988Z,49.89
2024-02-22T17:31:15.386Z,49.90
2024-02-22T17:33:42.618Z,49.66
2024-02-22T17:36:09.978Z,49.63
2024-02-22T17:38:38.309Z,49.20
2024-02-22T17:41:05.539Z,49.65
2024-02-22T17:43:32.729Z,49.34
2024-02-22T17:46:00.010Z,49.69
2024-02-22T17:48:27.292Z,49.58
2024-02-22T17:50:54.376Z,49.43
2024-02-22T17:53:22.198Z,49.70
2024-02-22T17:55:49.525Z,49.96
2024-02-22T17:58:16.615Z,49.87
2024-02-22T18:00:43.826Z,49.92
2024-02-22T18:03:11.128Z,49.88
2024-02-22T18:05:38.446Z,49.82
2024-02-22T18:08:08.607Z,49.62
2024-02-22T18:10:36.798Z,49.45
2024-02-22T18:13:04.916Z,49.29
2024-02-22T18:15:32.904Z,49.34
2024-02-22T18:18:01.158Z,49.19
2024-02-22T18:20:38.473Z,49.63
2024-02-22T18:23:06.006Z,49.85
2024-02-22T18:25:33.322Z,49.89
2024-02-22T18:28:00.829Z,50.41
2024-02-22T18:30:27.826Z,50.64
2024-02-22T18:32:54.857Z,50.71
2024-02-22T18:35:22.103Z,51.04
2024-02-22T18:37:49.349Z,51.46
2024-02-22T18:40:16.885Z,51.49
2024-02-22T18:42:45.563Z,51.37
2024-02-22T18:45:14.824Z,51.26
2024-02-22T18:47:42.305Z,51.08
2024-02-22T18:50:09.974Z,51.26
2024-02-22T18:52:37.169Z,51.38
2024-02-22T18:55:08.098Z,51.74
2024-02-22T18:57:35.855Z,51.72
2024-02-22T19:00:05.251Z,51.64
2024-02-22T19:02:35.566Z,51.94
2024-02-22T19:05:02.670Z,52.17
2024-02-22T19:07:31.655Z,52.13
2024-02-22T19:09:58.744Z,52.27
2024-02-22T19:12:25.942Z,52.12
2024-02-22T19:14:54.604Z,52.26
2024-02-22T19:17:22.014Z,52.11
2024-02-22T19:19:50.067Z,52.04
2024-02-22T19:22:17.152Z,52.16
2024-02-22T19:24:44.370Z,52.07
2024-02-22T19:27:11.776Z,51.90
2024-02-22T19:29:44.159Z,52.20
2024-02-22T19:32:11.513Z,52.16
2024-02-22T19:34:38.864Z,52.63
2024-02-22T19:37:08.644Z,52.81
2024-02-22T19:39:39.765Z,52.44
2024-02-22T19:42:08.106Z,52.57
2024-02-22T19:44:35.305Z,52.56
2024-02-22T19:47:02.469Z,52.69
2024-02-22T19:49:31.905Z,52.89
2024-02-22T19:51:58.993Z,52.57
2024-02-22T19:54:28.628Z,52.93
2024-02-22T19:56:57.475Z,52.86
2024-02-22T19:59:24.801Z,52.40
2024-02-22T20:01:52.175Z,52.40
2024-02-22T20:04:19.537Z,52.53
2024-02-22T20:06:46.682Z,52.64
2024-02-22T20:09:13.910Z,52.53
2024-02-22T20:11:43.286Z,52.30
2024-02-22T20:14:10.615Z,52.70
2024-02-22T20:16:37.847Z,52.81
2024-02-22T20:19:05.743Z,52.42
2024-02-22T20:21:35.745Z,52.65
2024-02-22T20:24:04.413Z,52.49
2024-02-22T20:26:31.935Z,52.75
2024-02-22T20:28:59.222Z,53.01
2024-02-22T20:31:27.770Z,52.96
2024-02-22T20:33:57.879Z,53.23
2024-02-22T20:36:28.316Z,53.39
2024-02-22T20:38:55.807Z,53.32
2024-02-22T20:41:28.440Z,53.38
2024-02-22T20:43:57.825Z,53.31
2024-02-22T20:46:27.970Z,53.84
2024-02-22T20:48:57.114Z,54.27
2024-02-22T20:51:29.620Z,54.44
2024-02-22T20:53:57.506Z,54.37
2024-02-22T20:56:25.909Z,54.70
2024-02-22T20:58:54.579Z,54.37
2024-02-22T21:01:22.574Z,53.85
2024-02-22T21:03:49.640Z,53.95
2024-02-22T21:06:21.507Z,54.04
2024-02-22T21:08:49.827Z,53.50
2024-02-22T21:11:20.515Z,53.09
2024-02-22T21:13:47.644Z,53.60
2024-02-22T21:16:14.858Z,53.14
2024-02-22T21:18:42.290Z,53.21
2024-02-22T21:21:09.576Z,52.80
2024-02-22T21:23:38.254Z,52.50
2024-02-22T21:26:05.333Z,52.65
2024-02-22T21:28:32.713Z,51.95
2024-02-22T21:30:59.953Z,52.16
2024-02-22T21:33:27.210Z,51.98
2024-02-22T21:35:54.867Z,52.04
2024-02-22T21:38:22.271Z,51.76
2024-02-22T21:40:49.548Z,51.77
2024-02-22T21:43:16.769Z,51.49
2024-02-22T21:45:44.219Z,51.39
2024-02-22T21:48:12.038Z,51.08
2024-02-22T21:50:39.570Z,50.85
2024-02-22T21:53:10.289Z,51.09
2024-02-22T21:55:37.428Z,50.08
2024-02-22T21:58:05.442Z,49.88
2024-02-22T22:00:32.514Z,49.76
2024-02-22T22:02:59.546Z,49.80
2024-02-22T22:05:26.607Z,49.62
2024-02-22T22:07:53.695Z,49.41
2024-02-22T22:10:21.798Z,49.23
2024-02-22T22:12:49.153Z,48.76
2024-02-22T22:15:17.946Z,48.51
2024-02-22T22:17:45.152Z,48.64
2024-02-22T22:20:12.651Z,48.51
2024-02-22T22:22:39.701Z,48.53
2024-02-22T22:25:07.608Z,48.45
2024-02-22T22:27:34.635Z,48.26
2024-02-22T22:30:01.818Z,48.28
2024-02-22T22:32:29.120Z,47.97
2024-02-22T22:34:56.259Z,48.23
2024-02-22T22:37:23.339Z,48.22
2024-02-22T22:39:50.401Z,48.24
2024-02-22T22:42:17.458Z,48.31
2024-02-22T22:44:44.520Z,48.29
2024-02-22T22:47:11.648Z,48.27
2024-02-22T22:49:39.285Z,48.13
2024-02-22T22:52:07.778Z,48.51
2024-02-22T22:54:34.913Z,48.58
2024-02-22T22:57:02.007Z,48.81
2024-02-22T22:59:29.108Z,49.28
2024-02-22T23:01:57.980Z,49.89
2024-02-22T23:04:26.061Z,49.50
2024-02-22T23:06:53.856Z,49.88
2024-02-22T23:09:24.599Z,49.98
2024-02-22T23:11:52.708Z,50.24
2024-02-22T23:14:21.098Z,50.43
2024-02-22T23:16:49.107Z,49.88
2024-02-22T23:19:16.363Z,49.59
2024-02-22T23:21:43.537Z,49.83
2024-02-22T23:24:10.639Z,50.21
2024-02-22T23:26:40.874Z,50.12
2024-02-22T23:29:09.410Z,50.26
2024-02-22T23:31:36.942Z,50.66
2024-02-22T23:34:04.322Z,50.23
2024-02-22T23:36:32.436Z,50.38
2024-02-22T23:39:00.238Z,50.43
2024-02-22T23:41:30.026Z,50.62
2024-02-22T23:44:01.444Z,51.51
2024-02-22T23:46:29.597Z,51.11
2024-02-22T23:48:57.144Z,50.81
2024-02-22T23:51:24.596Z,50.96
2024-02-22T23:53:51.746Z,50.23
2024-02-22T23:56:18.881Z,50.51
2024-02-22T23:58:46.393Z,50.25
